Map

Track Data

SID SEASON NUMBER BASIN SUBBASIN NAME ISO_TIME NATURE LAT LON WMO_WIND WMO_PRES WMO_AGENCY TRACK_TYPE DIST2LAND LANDFALL IFLAG USA_AGENCY USA_ATCF_ID USA_LAT USA_LON USA_RECORD USA_STATUS USA_WIND USA_PRES USA_SSHS USA_R34_NE USA_R34_SE USA_R34_SW USA_R34_NW USA_R50_NE USA_R50_SE USA_R50_SW USA_R50_NW USA_R64_NE USA_R64_SE USA_R64_SW USA_R64_NW USA_POCI USA_ROCI USA_RMW USA_EYE TOKYO_LAT TOKYO_LON TOKYO_GRADE TOKYO_WIND TOKYO_PRES TOKYO_R50_DIR TOKYO_R50_LONG TOKYO_R50_SHORT TOKYO_R30_DIR TOKYO_R30_LONG TOKYO_R30_SHORT TOKYO_LAND CMA_LAT CMA_LON CMA_CAT CMA_WIND CMA_PRES HKO_LAT HKO_LON HKO_CAT HKO_WIND HKO_PRES NEWDELHI_LAT NEWDELHI_LON NEWDELHI_GRADE NEWDELHI_WIND NEWDELHI_PRES NEWDELHI_CI NEWDELHI_DP NEWDELHI_POCI REUNION_LAT REUNION_LON REUNION_TYPE REUNION_WIND REUNION_PRES REUNION_TNUM REUNION_CI REUNION_RMW REUNION_R34_NE REUNION_R34_SE REUNION_R34_SW REUNION_R34_NW REUNION_R50_NE REUNION_R50_SE REUNION_R50_SW REUNION_R50_NW REUNION_R64_NE REUNION_R64_SE REUNION_R64_SW REUNION_R64_NW BOM_LAT BOM_LON BOM_TYPE BOM_WIND BOM_PRES BOM_TNUM BOM_CI BOM_RMW BOM_R34_NE BOM_R34_SE BOM_R34_SW BOM_R34_NW BOM_R50_NE BOM_R50_SE BOM_R50_SW BOM_R50_NW BOM_R64_NE BOM_R64_SE BOM_R64_SW BOM_R64_NW BOM_ROCI BOM_POCI BOM_EYE BOM_POS_METHOD BOM_PRES_METHOD NADI_LAT NADI_LON NADI_CAT NADI_WIND NADI_PRES WELLINGTON_LAT WELLINGTON_LON WELLINGTON_WIND WELLINGTON_PRES DS824_LAT DS824_LON DS824_STAGE DS824_WIND DS824_PRES TD9636_LAT TD9636_LON TD9636_STAGE TD9636_WIND TD9636_PRES TD9635_LAT TD9635_LON TD9635_WIND TD9635_PRES TD9635_ROCI NEUMANN_LAT NEUMANN_LON NEUMANN_CLASS NEUMANN_WIND NEUMANN_PRES MLC_LAT MLC_LON MLC_CLASS MLC_WIND MLC_PRES USA_GUST BOM_GUST BOM_GUST_PER REUNION_GUST REUNION_GUST_PER USA_SEAHGT USA_SEARAD_NE USA_SEARAD_SE USA_SEARAD_SW USA_SEARAD_NW STORM_SPEED STORM_DIR
1978323N08092 1978 125 NI BB NOT_NAMED 1978-11-19 00:00:00 TS 7.70000 91.6000 main 462 462 O________OO___ jtwc_io IO041978 7.70000 91.6000 -1 7.70000 91.6000 TC 7.70000 91.6000 1 1 270
1978323N08092 1978 125 NI BB NOT_NAMED 1978-11-19 03:00:00 TS 7.70001 91.5469 main 471 471 P________PP___ IO041978 7.70000 91.5625 -1 7.70000 91.5625 TC 7.70003 91.5156 1 1 270
1978323N08092 1978 125 NI BB NOT_NAMED 1978-11-19 06:00:00 TS 7.70002 91.4783 main 471 471 O________OP___ jtwc_io IO041978 7.70000 91.5000 -1 7.70000 91.5000 TC 7.70005 91.4350 1 2 270
1978323N08092 1978 125 NI BB NOT_NAMED 1978-11-19 09:00:00 TS 7.70002 91.3873 main 481 481 P________PP___ IO041978 7.70001 91.4000 -1 7.70001 91.4000 TC 7.70004 91.3619 1 2 270
1978323N08092 1978 125 NI BB NOT_NAMED 1978-11-19 12:00:00 TS 7.70000 91.3000 main 491 491 O________OO___ jtwc_io IO041978 7.70000 91.3000 -1 7.70000 91.3000 TC 7.70000 91.3000 1 1 270
1978323N08092 1978 125 NI BB NOT_NAMED 1978-11-19 15:00:00 TS 7.69998 91.2498 main 500 500 P________PP___ IO041978 7.69999 91.2500 -1 7.69999 91.2500 TC 7.69995 91.2494 1 1 270
1978323N08092 1978 125 NI BB NOT_NAMED 1978-11-19 18:00:00 TS 7.69997 91.1983 main 500 500 O________OP___ jtwc_io IO041978 7.70000 91.2000 XX 30 -5 7.70000 91.2000 TC 30 7.69991 91.1950 1 1 270
1978323N08092 1978 125 NI BB NOT_NAMED 1978-11-19 21:00:00 TS 7.69997 91.1161 main 510 510 P________PP___ IO041978 7.70000 91.1150 XX 32 -5 7.70000 91.1150 TC 32 7.69993 91.1181 1 2 270
1978323N08092 1978 125 NI BB NOT_NAMED 1978-11-20 00:00:00 TS 7.70000 91.0000 main 520 520 O________OO___ jtwc_io IO041978 7.70000 91.0000 XX 35 -5 7.70000 91.0000 TC 35 7.70000 91.0000 1 2 270
1978323N08092 1978 125 NI BB NOT_NAMED 1978-11-20 03:00:00 TS 7.69996 90.8661 main 530 530 P________PP___ IO041978 7.69997 90.8800 XX 37 -5 7.69997 90.8800 TC 37 7.69996 90.8384 1 3 270
1978323N08092 1978 125 NI BB NOT_NAMED 1978-11-20 06:00:00 TS 7.69997 90.6775 main 550 550 O________OP___ jtwc_io IO041978 7.70000 90.7000 XX 40 -5 7.70000 90.7000 TC 40 7.69991 90.6325 1 4 270
1978323N08092 1978 125 NI BB NOT_NAMED 1978-11-20 09:00:00 TS 7.69997 90.4151 main 580 580 P________PP___ IO041978 7.70000 90.4300 XX 40 -5 7.70000 90.4300 TC 40 7.69992 90.3853 1 6 270
1978323N08092 1978 125 NI BB NOT_NAMED 1978-11-20 12:00:00 TS 7.70000 90.1000 main 610 610 O________OO___ jtwc_io IO041978 7.70000 90.1000 XX 40 -5 7.70000 90.1000 TC 40 7.70000 90.1000 2 6 270
1978323N08092 1978 125 NI BB NOT_NAMED 1978-11-20 15:00:00 TS 7.70000 89.7670 main 641 641 P________PP___ IO041978 7.69999 89.7575 XX 40 -5 7.69999 89.7575 TC 40 7.70004 89.7859 2 7 270
1978323N08092 1978 125 NI BB NOT_NAMED 1978-11-20 18:00:00 TS 7.70001 89.4125 main 682 682 O________OP___ jtwc_io IO041978 7.70000 89.4000 XX 40 -5 7.70000 89.4000 TC 40 7.70005 89.4375 2 7 270
1978323N08092 1978 125 NI BB NOT_NAMED 1978-11-20 21:00:00 TS 7.69999 89.0568 main 714 714 P________PP___ IO041978 7.69997 89.0500 XX 42 -5 7.69997 89.0500 TC 42 7.70002 89.0703 2 7 270
1978323N08092 1978 125 NI BB NOT_NAMED 1978-11-21 00:00:00 TS 7.70000 88.7000 main 754 721 O________OO___ jtwc_io IO041978 7.70000 88.7000 XX 45 -5 7.70000 88.7000 TC 45 7.70000 88.7000 4 7 270
1978323N08092 1978 125 NI BB NOT_NAMED 1978-11-21 03:00:00 TS 7.70132 88.3473 main 710 677 P________PP___ IO041978 7.69997 88.3500 XX 47 -5 7.69997 88.3500 TC 47 7.70402 88.3419 4 7 270
1978323N08092 1978 125 NI BB NOT_NAMED 1978-11-21 06:00:00 TS 7.70248 87.9950 main 677 645 O________OP___ jtwc_io IO041978 7.70000 88.0000 XX 50 -5 7.70000 88.0000 TC 50 7.70746 87.9850 4 7 270
1978323N08092 1978 125 NI BB NOT_NAMED 1978-11-21 09:00:00 TS 7.70238 87.6402 main 634 601 P________PP___ IO041978 7.69999 87.6425 XX 50 -5 7.69999 87.6425 TC 50 7.70716 87.6357 4 7 270
1978323N08092 1978 125 NI BB NOT_NAMED 1978-11-21 12:00:00 TS 7.70000 87.3000 main 601 568 O________OO___ jtwc_io IO041978 7.70000 87.3000 XX 50 -5 7.70000 87.3000 TC 50 7.70000 87.3000 4 6 270
1978323N08092 1978 125 NI BB NOT_NAMED 1978-11-21 15:00:00 TS 7.70306 86.9902 main 568 535 P________PP___ IO041978 7.70746 86.9925 XX 52 -5 7.70746 86.9925 TC 52 7.69426 86.9857 4 6 269
1978323N08092 1978 125 NI BB NOT_NAMED 1978-11-21 18:00:00 TS 7.69328 86.6950 main 535 502 O________OP___ jtwc_io IO041978 7.70000 86.7000 XX 55 -5 7.70000 86.7000 TC 55 7.67985 86.6851 4 6 266
1978323N08092 1978 125 NI BB NOT_NAMED 1978-11-21 21:00:00 TS 7.66016 86.3973 main 502 468 P________PP___ IO041978 7.66498 86.4000 XX 57 -5 7.66498 86.4000 TC 57 7.65052 86.3919 4 6 261
1978323N08092 1978 125 NI BB NOT_NAMED 1978-11-22 00:00:00 TS 7.60000 86.1000 main 468 434 O________OO___ jtwc_io IO041978 7.60000 86.1000 XX 60 -5 7.60000 86.1000 TC 60 7.60000 86.1000 4 6 255
1978323N08092 1978 125 NI BB NOT_NAMED 1978-11-22 03:00:00 TS 7.50674 85.8000 main 434 400 P________PP___ IO041978 7.50748 85.8000 XX 65 -5 7.50748 85.8000 TC 65 7.50525 85.7999 4 6 251
1978323N08092 1978 125 NI BB NOT_NAMED 1978-11-22 06:00:00 TS 7.39747 85.4999 main 400 365 O________OP___ jtwc_io IO041978 7.40000 85.5000 XX 70 -5 7.40000 85.5000 TC 70 7.39242 85.4998 4 6 250
1978323N08092 1978 125 NI BB NOT_NAMED 1978-11-22 09:00:00 TS 7.28945 85.2000 main 365 332 P________PP___ IO041978 7.29248 85.2000 XX 72 -5 7.29248 85.2000 TC 72 7.28338 85.1999 4 6 252
1978323N08092 1978 125 NI BB NOT_NAMED 1978-11-22 12:00:00 TS 7.20000 84.9000 main 332 298 O________OO___ jtwc_io IO041978 7.20000 84.9000 XX 75 -5 7.20000 84.9000 TC 75 7.20000 84.9000 4 6 255
1978323N08092 1978 125 NI BB NOT_NAMED 1978-11-22 15:00:00 TS 7.13391 84.6040 main 298 265 P________PP___ IO041978 7.12748 84.6000 XX 77 -5 7.12748 84.6000 TC 77 7.14676 84.6121 4 6 261
1978323N08092 1978 125 NI BB NOT_NAMED 1978-11-22 18:00:00 TS 7.10828 84.3075 main 265 232 O________OP___ jtwc_io IO041978 7.10000 84.3000 XX 80 -5 7.10000 84.3000 TC 80 7.12483 84.3224 4 6 269
1978323N08092 1978 125 NI BB NOT_NAMED 1978-11-22 21:00:00 TS 7.12681 84.0121 main 232 200 P________PP___ IO041978 7.11997 84.0075 XX 82 -5 7.11997 84.0075 TC 82 7.14049 84.0214 4 6 279
1978323N08092 1978 125 NI BB NOT_NAMED 1978-11-23 00:00:00 TS 7.20000 83.7000 main 200 169 O________OO___ jtwc_io IO041978 7.20000 83.7000 XX 85 -5 7.20000 83.7000 TC 85 7.20000 83.7000 4 7 287
1978323N08092 1978 125 NI BB NOT_NAMED 1978-11-23 03:00:00 TS 7.32425 83.3589 main 169 132 P________PP___ IO041978 7.33497 83.3650 XX 87 -5 7.33497 83.3650 TC 87 7.30280 83.3466 4 8 292
1978323N08092 1978 125 NI BB NOT_NAMED 1978-11-23 06:00:00 TS 7.48249 82.9909 main 132 88 O________OP___ jtwc_io IO041978 7.50000 83.0000 XX 90 -5 7.50000 83.0000 TC 90 7.44748 82.9726 4 8 293
1978323N08092 1978 125 NI BB NOT_NAMED 1978-11-23 09:00:00 TS 7.63947 82.5957 main 88 49 P________PP___ IO041978 7.65000 82.6000 XX 85 -5 7.65000 82.6000 TC 85 7.61841 82.5872 4 8 292
1978323N08092 1978 125 NI BB NOT_NAMED 1978-11-23 12:00:00 TS 7.80000 82.2000 main 49 31 O________OO___ jtwc_io IO041978 7.80000 82.2000 XX 80 -5 7.80000 82.2000 TC 80 7.80000 82.2000 4 8 293
1978323N08092 1978 125 NI BB NOT_NAMED 1978-11-23 15:00:00 TS 7.94673 81.8510 main 31 0 P________PP___ IO041978 7.94243 81.8499 XX 75 -5 7.94243 81.8499 TC 75 7.95533 81.8531 4 8 294
1978323N08092 1978 125 NI BB NOT_NAMED 1978-11-23 18:00:00 TS 8.10651 81.5007 main 0 0 O________OP___ jtwc_io IO041978 8.10000 81.5000 XX 70 -5 8.10000 81.5000 TC 70 8.11953 81.5020 4 8 295
1978323N08092 1978 125 NI BB NOT_NAMED 1978-11-23 21:00:00 TS 8.28962 81.1233 main 0 0 P________PP___ IO041978 8.28493 81.1224 XX 65 -5 8.28493 81.1224 TC 65 8.29899 81.1249 4 9 296
1978323N08092 1978 125 NI BB NOT_NAMED 1978-11-24 00:00:00 TS 8.50000 80.7000 main 0 0 O________OO___ jtwc_io IO041978 8.50000 80.7000 XX 60 -5 8.50000 80.7000 TC 60 8.50000 80.7000 4 10 297
1978323N08092 1978 125 NI BB NOT_NAMED 1978-11-24 03:00:00 TS 8.73767 80.2308 main 0 0 P________PP___ IO041978 8.74243 80.2299 XX 55 -5 8.74243 80.2299 TC 55 8.72815 80.2326 4 11 297
1978323N08092 1978 125 NI BB NOT_NAMED 1978-11-24 06:00:00 TS 8.99233 79.7040 main 24 24 O________OP___ jtwc_io IO041978 9.00000 79.7000 XX 50 -5 9.00000 79.7000 TC 50 8.97699 79.7121 4 12 295
1978323N08092 1978 125 NI BB NOT_NAMED 1978-11-24 09:00:00 TS 9.24568 79.1368 main 15 0 P________PP___ IO041978 9.24985 79.1374 XX 47 -5 9.24985 79.1374 TC 47 9.23734 79.1355 4 13 293
1978323N08092 1978 125 NI BB NOT_NAMED 1978-11-24 12:00:00 TS 9.50000 78.5000 main 0 0 O________OO___ jtwc_io IO041978 9.50000 78.5000 XX 45 -5 9.50000 78.5000 TC 45 9.50000 78.5000 4 14 291
1978323N08092 1978 125 NI AS NOT_NAMED 1978-11-24 15:00:00 TS 9.75016 77.7733 main 0 0 P________PP___ IO041978 9.74997 77.7724 XX 40 -5 9.74997 77.7724 TC 40 9.75053 77.7751 4 16 289
1978323N08092 1978 125 NI AS NOT_NAMED 1978-11-24 18:00:00 TS 10.0003 77.0000 main 0 0 O________OP___ jtwc_io IO041978 10.0000 77.0000 XX 35 -5 10.0000 77.0000 TC 35 10.0008 77.0001 4 16 288
1978323N08092 1978 125 NI AS NOT_NAMED 1978-11-24 21:00:00 TS 10.2502 76.2266 main 0 0 P________PP___ IO041978 10.2500 76.2275 XX 32 -5 10.2500 76.2275 TC 32 10.2506 76.2250 4 16 289
1978323N08092 1978 125 NI AS NOT_NAMED 1978-11-25 00:00:00 TS 10.5000 75.5000 main 55 55 O________OO___ jtwc_io IO041978 10.5000 75.5000 XX 30 -5 10.5000 75.5000 TC 30 10.5000 75.5000 1 14 291
1978323N08092 1978 125 NI AS NOT_NAMED 1978-11-25 03:00:00 TS 10.7510 74.8643 main 109 109 P________PP___ IO041978 10.7498 74.8624 XX 30 -5 10.7498 74.8624 TC 30 10.7535 74.8680 1 13 293
1978323N08092 1978 125 NI AS NOT_NAMED 1978-11-25 06:00:00 TS 11.0023 74.2983 main 148 148 O________OP___ jtwc_io IO041978 11.0000 74.3000 XX 30 -5 11.0000 74.3000 TC 30 11.0068 74.2949 1 12 295
1978323N08092 1978 125 NI AS NOT_NAMED 1978-11-25 09:00:00 TS 11.2522 73.7714 main 171 171 P________PP___ IO041978 11.2499 73.7699 XX 30 -5 11.2499 73.7699 TC 30 11.2568 73.7743 1 11 297
1978323N08092 1978 125 NI AS NOT_NAMED 1978-11-25 12:00:00 TS 11.5000 73.3000 main 210 210 O________OO___ jtwc_io IO041978 11.5000 73.3000 XX 30 -5 11.5000 73.3000 TC 30 11.5000 73.3000 2 10 299
1978323N08092 1978 125 NI AS NOT_NAMED 1978-11-25 15:00:00 TS 11.7502 72.8714 main 234 234 P________PP___ IO041978 11.7574 72.8849 XX 32 -5 11.7574 72.8849 TC 32 11.7358 72.8444 2 9 301
1978323N08092 1978 125 NI AS NOT_NAMED 1978-11-25 18:00:00 TS 11.9882 72.4774 main 265 265 O________OP___ jtwc_io IO041978 12.0000 72.5000 XX 35 -5 12.0000 72.5000 TC 35 11.9645 72.4322 2 9 300
1978323N08092 1978 125 NI AS NOT_NAMED 1978-11-25 21:00:00 TS 12.2003 72.0796 main 300 300 P________PP___ IO041978 12.2075 72.0924 XX 35 -5 12.2075 72.0924 TC 35 12.1859 72.0539 2 9 298
1978323N08092 1978 125 NI AS NOT_NAMED 1978-11-26 00:00:00 TS 12.4000 71.7000 main 339 339 O________OO___ jtwc_io IO041978 12.4000 71.7000 XX 35 -5 12.4000 71.7000 TC 35 12.4000 71.7000 2 8 299
1978323N08092 1978 125 NI AS NOT_NAMED 1978-11-26 03:00:00 TS 12.6023 71.3343 main 376 376 P________PP___ IO041978 12.5999 71.3349 XX 35 -5 12.5999 71.3349 TC 35 12.6071 71.3330 2 8 300
1978323N08092 1978 125 NI AS NOT_NAMED 1978-11-26 06:00:00 TS 12.8025 70.9966 main 402 402 O________OP___ jtwc_io IO041978 12.8000 71.0000 XX 35 -5 12.8000 71.0000 TC 35 12.8074 70.9899 2 8 302
1978323N08092 1978 125 NI AS NOT_NAMED 1978-11-26 09:00:00 TS 13.0013 70.6772 main 417 417 P________PP___ IO041978 13.0000 70.6775 XX 32 -5 13.0000 70.6775 TC 32 13.0040 70.6768 2 7 304
1978323N08092 1978 125 NI AS NOT_NAMED 1978-11-26 12:00:00 TS 13.2000 70.4000 main 433 433 O________OO___ jtwc_io IO041978 13.2000 70.4000 XX 30 -5 13.2000 70.4000 TC 30 13.2000 70.4000 2 6 309
1978323N08092 1978 125 NI AS NOT_NAMED 1978-11-26 15:00:00 TS 13.3958 70.1833 main 442 442 P________PP___ IO041978 13.3999 70.1849 XX 27 -5 13.3999 70.1849 TC 27 13.3875 70.1799 2 6 315
1978323N08092 1978 125 NI AS NOT_NAMED 1978-11-26 18:00:00 TS 13.5924 69.9973 main 452 452 O________OP___ jtwc_io IO041978 13.6000 70.0000 XX 25 -5 13.6000 70.0000 TC 25 13.5771 69.9919 2 5 317
1978323N08092 1978 125 NI AS NOT_NAMED 1978-11-26 21:00:00 TS 13.7877 69.8126 main 465 465 P________PP___ IO041978 13.7924 69.8149 XX 25 -5 13.7924 69.8149 TC 25 13.7781 69.8080 2 6 317
1978323N08092 1978 125 NI AS NOT_NAMED 1978-11-27 00:00:00 TS 14.0000 69.6000 main 475 475 O________OO___ jtwc_io IO041978 14.0000 69.6000 XX 25 -5 14.0000 69.6000 TC 25 14.0000 69.6000 2 7 313
1978323N08092 1978 125 NI AS NOT_NAMED 1978-11-27 03:00:00 TS 14.2453 69.3089 main 498 493 P________PP___ IO041978 14.2350 69.3150 XX 22 -5 14.2350 69.3150 TC 22 14.2659 69.2967 2 8 311
1978323N08092 1978 125 NI AS NOT_NAMED 1978-11-27 06:00:00 TS 14.5168 68.9902 main 512 512 O________OP___ jtwc_io IO041978 14.5000 69.0000 XX 20 -5 14.5000 69.0000 TC 20 14.5504 68.9706 2 8 313
1978323N08092 1978 125 NI AS NOT_NAMED 1978-11-27 09:00:00 TS 14.8166 68.6715 main 528 528 P________PP___ IO041978 14.8075 68.6776 XX 20 -5 14.8075 68.6776 TC 20 14.8347 68.6592 2 8 316
1978323N08092 1978 125 NI AS NOT_NAMED 1978-11-27 12:00:00 TS 15.1000 68.4000 main 547 544 O________OO___ jtwc_io IO041978 15.1000 68.4000 XX 20 -5 15.1000 68.4000 TC 20 15.1000 68.4000 2 7 319
1978323N08092 1978 125 NI AS NOT_NAMED 1978-11-27 15:00:00 TS 15.3171 68.2196 main 561 559 P________PP___ IO041978 15.3149 68.2124 XX -5 15.3149 68.2124 TC 15.3213 68.2340 2 5 325
1978323N08092 1978 125 NI AS NOT_NAMED 1978-11-27 18:00:00 TS 15.5074 68.1082 main 567 562 O________OP___ jtwc_io IO041978 15.5000 68.1000 -1 15.5000 68.1000 TC 15.5222 68.1245 2 4 336
1978323N08092 1978 125 NI AS NOT_NAMED 1978-11-27 21:00:00 TS 15.7040 68.0409 main 573 570 P________PP___ IO041978 15.7000 68.0350 -1 15.7000 68.0350 TC 15.7120 68.0528 2 4 346
1978323N08092 1978 125 NI AS NOT_NAMED 1978-11-28 00:00:00 TS 15.9000 68.0000 main 570 567 O________OO___ jtwc_io IO041978 15.9000 68.0000 -1 15.9000 68.0000 TC 15.9000 68.0000 1 4 346
1978323N08092 1978 125 NI AS NOT_NAMED 1978-11-28 03:00:00 TS 16.1054 67.9425 main 578 572 P________PP___ IO041978 16.1000 67.9500 -1 16.1000 67.9500 TC 16.1162 67.9275 1 4 346
1978323N08092 1978 125 NI AS NOT_NAMED 1978-11-28 06:00:00 TS 16.3100 67.8900 main 572 560 O________OP___ jtwc_io IO041978 16.3000 67.9000 -1 16.3000 67.9000 TC 16.3300 67.8700 1 4 347
1978323N08092 1978 125 NI AS NOT_NAMED 1978-11-28 09:00:00 TS 16.5146 67.8375 main 566 547 P________PP___ IO041978 16.5075 67.8425 -1 16.5075 67.8425 TC 16.5287 67.8275 1 4 347
1978323N08092 1978 125 NI AS NOT_NAMED 1978-11-28 12:00:00 TS 16.7000 67.8000 main 547 529 O________OO___ jtwc_io IO041978 16.7000 67.8000 -1 16.7000 67.8000 TC 16.7000 67.8000 1 4 354
1978323N08092 1978 125 NI AS NOT_NAMED 1978-11-28 15:00:00 TS 16.8600 67.7906 main 529 520 P________PP___ IO041978 16.8725 67.7925 -1 16.8725 67.7925 TC 16.8350 67.7869 1 3 0
1978323N08092 1978 125 NI AS NOT_NAMED 1978-11-28 18:00:00 TS 16.9800 67.7950 main 520 511 O________OP___ jtwc_io IO041978 17.0000 67.8000 -1 17.0000 67.8000 TC 16.9400 67.7850 1 2 4
1978323N08092 1978 125 NI AS NOT_NAMED 1978-11-28 21:00:00 TS 17.0533 67.7985 main 511 511 P________PP___ IO041978 17.0675 67.8025 -1 17.0675 67.8025 TC 17.0250 67.7906 1 1 0
1978323N08092 1978 125 NI AS NOT_NAMED 1978-11-29 00:00:00 TS 17.1000 67.8000 main 511 O________OO___ jtwc_io IO041978 17.1000 67.8000 -1 17.1000 67.8000 TC 17.1000 67.8000 1 1 0

About IBTrACS Database

This database is a web-friendly format of International Best Track Archive for Climate Stewardship (IBTrACS), a global best track data archive curated by NOAA dating back to 1842.

Updated: 2021-12-03